Time,TemperatureF,DewpointF,PressureIn,WindDirection,WindDirectionDegrees,WindSpeedMPH,WindSpeedGustMPH,Humidity,HourlyPrecipIn,Conditions,Clouds,dailyrainin,SoftwareType,DateUTC
2013-06-04 00:02:00,46.6,40.4,30.13,South,171,0.0,1.0,79,0.00,CLR,FEW,0.00,WeatherDisplay:10.37,2013-06-04 07:02:00,
2013-06-04 00:17:00,45.9,39.8,30.13,SW,225,0.0,0.0,79,0.00,CLR,FEW,0.00,WeatherDisplay:10.37,2013-06-04 07:17:00,
2013-06-04 00:32:00,45.3,39.5,30.13,SE,127,0.0,0.0,80,0.00,CLR,FEW,0.00,WeatherDisplay:10.37,2013-06-04 07:32:00,
2013-06-04 00:47:00,45.0,39.2,30.12,South,187,0.0,0.0,80,0.00,CLR,FEW,0.00,WeatherDisplay:10.37,2013-06-04 07:47:00,
2013-06-04 01:02:00,44.6,39.1,30.12,SSW,213,0.0,2.0,81,0.00,SCT,FEW,0.00,WeatherDisplay:10.37,2013-06-04 08:02:00,
2013-06-04 01:17:00,45.0,39.5,30.12,South,171,0.0,0.0,81,0.00,SCT,FEW,0.00,WeatherDisplay:10.37,2013-06-04 08:17:00,
2013-06-04 01:32:00,45.0,39.5,30.12,North,2,0.0,0.0,81,0.00,SCT,FEW,0.00,WeatherDisplay:10.37,2013-06-04 08:32:00,
2013-06-04 01:47:00,44.7,39.2,30.13,SSE,151,0.0,0.0,81,0.00,SCT,FEW,0.00,WeatherDisplay:10.37,2013-06-04 08:47:00,
2013-06-04 02:02:00,44.4,39.3,30.12,SE,135,0.0,0.0,82,0.00,SCT,FEW,0.00,WeatherDisplay:10.37,2013-06-04 09:02:00,
2013-06-04 02:17:00,44.6,39.4,30.12,ESE,115,0.0,0.0,82,0.00,SCT,FEW,0.00,WeatherDisplay:10.37,2013-06-04 09:17:00,
2013-06-04 02:32:00,44.8,39.6,30.13,ESE,112,0.0,0.0,82,0.00,SCT,FEW,0.00,WeatherDisplay:10.37,2013-06-04 09:32:00,
2013-06-04 02:47:00,44.4,39.3,30.12,ESE,112,0.0,0.0,82,0.00,SCT,FEW,0.00,WeatherDisplay:10.37,2013-06-04 09:47:00,
2013-06-04 03:02:00,43.5,38.4,30.12,ESE,112,0.0,0.0,82,0.00,OVC,FEW,0.00,WeatherDisplay:10.37,2013-06-04 10:02:00,
2013-06-04 03:17:00,43.0,37.9,30.12,SE,135,0.0,0.0,82,0.00,OVC,FEW,0.00,WeatherDisplay:10.37,2013-06-04 10:17:00,
2013-06-04 03:32:00,42.4,37.3,30.12,SE,135,0.0,0.0,82,0.00,OVC,FEW,0.00,WeatherDisplay:10.37,2013-06-04 10:32:00,
2013-06-04 03:47:00,42.1,37.0,30.12,SE,135,0.0,0.0,82,0.00,OVC,FEW,0.00,WeatherDisplay:10.37,2013-06-04 10:47:00,
2013-06-04 04:02:00,41.8,37.0,30.12,South,185,0.0,0.0,83,0.00,OVC,FEW,0.00,WeatherDisplay:10.37,2013-06-04 11:02:00,
2013-06-04 04:17:00,41.7,36.9,30.12,SSE,155,0.0,0.0,83,0.00,OVC,FEW,0.00,WeatherDisplay:10.37,2013-06-04 11:17:00,
2013-06-04 04:32:00,41.9,37.1,30.12,South,188,0.0,0.0,83,0.00,OVC,FEW,0.00,WeatherDisplay:10.37,2013-06-04 11:32:00,
2013-06-04 04:47:00,41.9,37.1,30.12,South,180,0.0,0.0,83,0.00,OVC,FEW,0.00,WeatherDisplay:10.37,2013-06-04 11:47:00,
2013-06-04 05:02:00,41.9,37.1,30.12,South,180,0.0,0.0,83,0.00,OVC,FEW,0.00,WeatherDisplay:10.37,2013-06-04 12:02:00,
2013-06-04 05:17:00,41.7,37.2,30.13,South,180,0.0,0.0,84,0.00,OVC,FEW,0.00,WeatherDisplay:10.37,2013-06-04 12:17:00,
2013-06-04 05:32:00,41.7,37.2,30.13,South,180,0.0,0.0,84,0.00,OVC,FEW,0.00,WeatherDisplay:10.37,2013-06-04 12:32:00,
2013-06-04 05:47:00,42.2,37.7,30.13,South,180,0.0,0.0,84,0.00,OVC,FEW,0.00,WeatherDisplay:10.37,2013-06-04 12:47:00,
2013-06-04 06:02:00,43.4,38.9,30.12,SSW,212,0.0,2.0,84,0.00,OVC,FEW,0.00,WeatherDisplay:10.37,2013-06-04 13:02:00,
2013-06-04 06:17:00,45.0,40.4,30.12,SSE,163,1.0,2.0,84,0.00,OVC,FEW,0.00,WeatherDisplay:10.37,2013-06-04 13:17:00,
2013-06-04 06:32:00,46.2,41.7,30.12,West,264,0.0,0.0,84,0.00,OVC,FEW,0.00,WeatherDisplay:10.37,2013-06-04 13:32:00,
2013-06-04 06:47:00,47.5,42.9,30.12,South,181,0.0,0.0,84,0.00,OVC,FEW,0.00,WeatherDisplay:10.37,2013-06-04 13:47:00,
2013-06-04 07:02:00,48.8,44.2,30.12,SSE,168,0.0,1.0,84,0.00,OVC,FEW,0.00,WeatherDisplay:10.37,2013-06-04 14:02:00,
2013-06-04 07:17:00,50.2,45.9,30.12,SSW,194,0.0,2.0,85,0.00,OVC,FEW,0.00,WeatherDisplay:10.37,2013-06-04 14:17:00,
2013-06-04 07:32:00,52.3,48.0,30.12,SSW,202,0.0,2.0,85,0.00,OVC,FEW,0.00,WeatherDisplay:10.37,2013-06-04 14:32:00,
2013-06-04 07:47:00,54.9,50.5,30.13,West,265,2.0,4.0,85,0.00,OVC,FEW,0.00,WeatherDisplay:10.37,2013-06-04 14:47:00,
2013-06-04 08:02:00,56.3,51.5,30.13,WSW,249,1.0,4.0,84,0.00,OVC,FEW,0.00,WeatherDisplay:10.37,2013-06-04 15:02:00,
2013-06-04 08:17:00,57.9,52.1,30.12,West,264,1.0,4.0,81,0.00,OVC,FEW,0.00,WeatherDisplay:10.37,2013-06-04 15:17:00,
2013-06-04 08:32:00,60.0,53.2,30.12,ENE,72,0.0,4.0,78,0.00,OVC,FEW,0.00,WeatherDisplay:10.37,2013-06-04 15:32:00,
2013-06-04 08:47:00,61.7,53.3,30.12,WNW,287,0.0,4.0,74,0.00,OVC,FEW,0.00,WeatherDisplay:10.37,2013-06-04 15:47:00,
2013-06-04 09:02:00,62.8,54.1,30.12,WNW,292,0.0,3.0,73,0.00,SCT,FEW,0.00,WeatherDisplay:10.37,2013-06-04 16:02:00,
2013-06-04 09:17:00,64.8,55.1,30.12,WSW,251,0.0,3.0,71,0.00,SCT,FEW,0.00,WeatherDisplay:10.37,2013-06-04 16:17:00,
2013-06-04 09:32:00,65.8,55.0,30.11,West,272,1.0,3.0,68,0.00,SCT,FEW,0.00,WeatherDisplay:10.37,2013-06-04 16:32:00,
2013-06-04 09:47:00,66.8,55.1,30.11,NW,316,1.0,2.0,66,0.00,SCT,FEW,0.00,WeatherDisplay:10.37,2013-06-04 16:47:00,
2013-06-04 10:02:00,68.1,55.5,30.10,South,171,1.0,4.0,64,0.00,FEW,FEW,0.00,WeatherDisplay:10.37,2013-06-04 17:02:00,
2013-06-04 10:17:00,68.8,55.3,30.09,WNW,300,2.0,4.0,62,0.00,FEW,FEW,0.00,WeatherDisplay:10.37,2013-06-04 17:17:00,
2013-06-04 10:32:00,70.1,56.0,30.10,West,274,1.0,4.0,61,0.00,FEW,FEW,0.00,WeatherDisplay:10.37,2013-06-04 17:32:00,
2013-06-04 10:47:00,70.9,56.3,30.09,North,350,1.0,5.0,60,0.00,FEW,FEW,0.00,WeatherDisplay:10.37,2013-06-04 17:47:00,
2013-06-04 11:02:00,72.0,57.3,30.09,West,269,1.0,4.0,60,0.00,CLR,FEW,0.00,WeatherDisplay:10.37,2013-06-04 18:02:00,
2013-06-04 11:17:00,72.7,57.5,30.09,NW,305,1.0,6.0,59,0.00,CLR,FEW,0.00,WeatherDisplay:10.37,2013-06-04 18:17:00,
2013-06-04 11:32:00,73.2,56.6,30.09,NW,307,1.0,4.0,56,0.00,CLR,FEW,0.00,WeatherDisplay:10.37,2013-06-04 18:32:00,
2013-06-04 11:47:00,74.7,57.9,30.09,WNW,287,2.0,5.0,56,0.00,CLR,FEW,0.00,WeatherDisplay:10.37,2013-06-04 18:47:00,
2013-06-04 12:02:00,75.6,57.2,30.08,NW,306,1.0,5.0,53,0.00,CLR,FEW,0.00,WeatherDisplay:10.37,2013-06-04 19:02:00,
2013-06-04 12:17:00,75.9,57.0,30.08,NW,319,1.0,5.0,52,0.00,CLR,FEW,0.00,WeatherDisplay:10.37,2013-06-04 19:17:00,
2013-06-04 12:32:00,76.9,55.7,30.07,NNW,333,2.0,4.0,48,0.00,CLR,FEW,0.00,WeatherDisplay:10.37,2013-06-04 19:32:00,
2013-06-04 12:47:00,77.5,56.9,30.07,NW,312,1.0,5.0,49,0.00,CLR,FEW,0.00,WeatherDisplay:10.37,2013-06-04 19:47:00,
2013-06-04 13:02:00,78.6,57.9,30.06,NNW,334,3.0,5.0,49,0.00,CLR,FEW,0.00,WeatherDisplay:10.37,2013-06-04 20:02:00,
2013-06-04 13:17:00,78.6,56.7,30.06,NNW,330,3.0,6.0,47,0.00,CLR,FEW,0.00,WeatherDisplay:10.37,2013-06-04 20:17:00,
2013-06-04 13:32:00,79.0,55.8,30.06,NNW,327,2.0,5.0,45,0.00,CLR,FEW,0.00,WeatherDisplay:10.37,2013-06-04 20:32:00,
2013-06-04 13:47:00,79.3,57.9,30.05,NNE,27,1.0,6.0,48,0.00,CLR,FEW,0.00,WeatherDisplay:10.37,2013-06-04 20:47:00,
2013-06-04 14:02:00,80.6,58.5,30.05,NNW,328,1.0,5.0,47,0.00,CLR,FEW,0.00,WeatherDisplay:10.37,2013-06-04 21:02:00,
2013-06-04 14:17:00,82.3,58.2,30.05,North,352,2.0,6.0,44,0.00,CLR,FEW,0.00,WeatherDisplay:10.37,2013-06-04 21:17:00,
2013-06-04 14:32:00,82.0,58.6,30.05,NW,305,2.0,7.0,45,0.00,CLR,FEW,0.00,WeatherDisplay:10.37,2013-06-04 21:32:00,
2013-06-04 14:47:00,82.6,59.7,30.05,WNW,294,2.0,6.0,46,0.00,CLR,FEW,0.00,WeatherDisplay:10.37,2013-06-04 21:47:00,
2013-06-04 15:02:00,83.6,59.4,30.04,West,276,3.0,7.0,44,0.00,CLR,FEW,0.00,WeatherDisplay:10.37,2013-06-04 22:02:00,
2013-06-04 15:17:00,82.5,58.4,30.04,NW,310,3.0,9.0,44,0.00,CLR,FEW,0.00,WeatherDisplay:10.37,2013-06-04 22:17:00,
2013-06-04 15:32:00,81.7,58.3,30.04,West,279,5.0,9.0,45,0.00,CLR,FEW,0.00,WeatherDisplay:10.37,2013-06-04 22:32:00,
2013-06-04 15:47:00,81.5,58.7,30.04,WNW,283,3.0,8.0,46,0.00,CLR,FEW,0.00,WeatherDisplay:10.37,2013-06-04 22:47:00,
2013-06-04 16:02:00,80.4,57.7,30.04,WNW,286,3.0,8.0,46,0.00,CLR,FEW,0.00,WeatherDisplay:10.37,2013-06-04 23:02:00,
2013-06-04 16:17:00,79.8,57.1,30.04,WNW,293,3.0,9.0,46,0.00,CLR,FEW,0.00,WeatherDisplay:10.37,2013-06-04 23:17:00,
2013-06-04 16:32:00,78.7,55.0,30.04,West,277,6.0,14.0,44,0.00,CLR,FEW,0.00,WeatherDisplay:10.37,2013-06-04 23:32:00,
2013-06-04 16:47:00,77.1,54.7,30.04,WNW,295,5.0,14.0,46,0.00,CLR,FEW,0.00,WeatherDisplay:10.37,2013-06-04 23:47:00,
2013-06-04 17:02:00,75.9,54.2,30.04,WNW,282,2.0,12.0,47,0.00,CLR,FEW,0.00,WeatherDisplay:10.37,2013-06-05 00:02:00,
2013-06-04 17:17:00,75.8,53.6,30.04,WNW,287,5.0,12.0,46,0.00,CLR,FEW,0.00,WeatherDisplay:10.37,2013-06-05 00:17:00,
2013-06-04 17:32:00,75.4,53.7,30.04,WNW,286,5.0,12.0,47,0.00,CLR,FEW,0.00,WeatherDisplay:10.37,2013-06-05 00:32:00,
2013-06-04 17:47:00,74.8,53.3,30.04,West,272,3.0,12.0,47,0.00,CLR,FEW,0.00,WeatherDisplay:10.37,2013-06-05 00:47:00,
2013-06-04 18:02:00,74.3,53.3,30.03,West,273,3.0,7.0,48,0.00,CLR,FEW,0.00,WeatherDisplay:10.37,2013-06-05 01:02:00,
2013-06-04 18:17:00,74.0,53.1,30.03,WSW,245,1.0,9.0,48,0.00,CLR,FEW,0.00,WeatherDisplay:10.37,2013-06-05 01:17:00,
2013-06-04 18:32:00,73.6,52.1,30.03,WSW,241,2.0,13.0,47,0.00,CLR,FEW,0.00,WeatherDisplay:10.37,2013-06-05 01:32:00,
2013-06-04 18:47:00,72.9,51.4,30.03,West,263,3.0,7.0,47,0.00,CLR,FEW,0.00,WeatherDisplay:10.37,2013-06-05 01:47:00,
2013-06-04 19:02:00,72.3,51.5,30.03,West,276,3.0,6.0,48,0.00,CLR,FEW,0.00,WeatherDisplay:10.37,2013-06-05 02:02:00,
2013-06-04 19:17:00,71.8,51.6,30.03,West,261,1.0,5.0,49,0.00,CLR,FEW,0.00,WeatherDisplay:10.37,2013-06-05 02:17:00,
2013-06-04 19:32:00,71.4,51.3,30.04,WSW,249,0.0,5.0,49,0.00,CLR,FEW,0.00,WeatherDisplay:10.37,2013-06-05 02:32:00,
2013-06-04 19:47:00,70.9,50.8,30.03,West,280,2.0,6.0,49,0.00,CLR,FEW,0.00,WeatherDisplay:10.37,2013-06-05 02:47:00,
2013-06-04 20:02:00,69.7,50.2,30.04,SW,233,0.0,5.0,50,0.00,CLR,FEW,0.00,WeatherDisplay:10.37,2013-06-05 03:02:00,
2013-06-04 20:17:00,68.7,49.3,30.04,WSW,255,1.0,4.0,50,0.00,CLR,FEW,0.00,WeatherDisplay:10.37,2013-06-05 03:17:00,
2013-06-04 20:32:00,67.2,49.0,30.03,WNW,288,0.0,4.0,52,0.00,CLR,FEW,0.00,WeatherDisplay:10.37,2013-06-05 03:32:00,
2013-06-04 20:47:00,65.8,48.6,30.03,WNW,293,0.0,2.0,54,0.00,CLR,FEW,0.00,WeatherDisplay:10.37,2013-06-05 03:47:00,
2013-06-04 21:02:00,64.1,48.1,30.04,NW,310,0.0,2.0,56,0.00,CLR,FEW,0.00,WeatherDisplay:10.37,2013-06-05 04:02:00,
2013-06-04 21:17:00,62.4,47.9,30.04,WSW,241,0.0,3.0,59,0.00,CLR,FEW,0.00,WeatherDisplay:10.37,2013-06-05 04:17:00,
2013-06-04 21:32:00,61.2,48.0,30.05,WSW,244,0.0,4.0,62,0.00,CLR,FEW,0.00,WeatherDisplay:10.37,2013-06-05 04:32:00,
2013-06-04 21:47:00,60.4,48.2,30.06,SW,226,0.0,3.0,64,0.00,CLR,FEW,0.00,WeatherDisplay:10.37,2013-06-05 04:47:00,
2013-06-04 22:02:00,59.6,47.8,30.06,West,266,0.0,2.0,65,0.00,CLR,FEW,0.00,WeatherDisplay:10.37,2013-06-05 05:02:00,
2013-06-04 22:17:00,58.8,47.5,30.06,West,269,0.0,2.0,66,0.00,CLR,FEW,0.00,WeatherDisplay:10.37,2013-06-05 05:17:00,
2013-06-04 22:32:00,57.8,46.9,30.06,SW,220,0.0,0.0,67,0.00,CLR,FEW,0.00,WeatherDisplay:10.37,2013-06-05 05:32:00,
2013-06-04 22:47:00,56.4,46.3,30.06,SE,135,0.0,0.0,69,0.00,CLR,FEW,0.00,WeatherDisplay:10.37,2013-06-05 05:47:00,
2013-06-04 23:02:00,55.1,45.5,30.06,SE,135,0.0,0.0,70,0.00,CLR,FEW,0.00,WeatherDisplay:10.37,2013-06-05 06:02:00,
2013-06-04 23:17:00,54.1,44.9,30.07,East,92,0.0,0.0,71,0.00,CLR,FEW,0.00,WeatherDisplay:10.37,2013-06-05 06:17:00,
2013-06-04 23:32:00,53.2,44.8,30.07,SE,130,0.0,0.0,73,0.00,CLR,FEW,0.00,WeatherDisplay:10.37,2013-06-05 06:32:00,
2013-06-04 23:47:00,52.3,44.3,30.07,SW,236,0.0,0.0,74,0.00,CLR,FEW,0.00,WeatherDisplay:10.37,2013-06-05 06:47:00,